CMA CGM Homere — MQBL6 — position and weather

sailwx.info

Track history (hours):
 
Tides and Currents Weather Stations Pressure Air Temp Water Temp Dewpoint Dewpoint Depression Visibility Wind Speed Wind Dir Waves Ship Positions

CMA CGM Homere

Last reported at 2015-Jul-11 20:12 UTC. Time now 2015-Jul-28 08:25 UTC.
Position N 13°55' W 062°30'.
Warning: this ship's position is 16 days out of date.

Length 170 m; draft 7.9 m.

Type: Ship (hazmat cat A). MMSI: 235052314.

Date/timePositionNaut miles runAvg speedWind from/ knotsBaromVisibWave heightAir tempDewpointWater temp
2015-Jul-11 20:12N 13°55' W 062°30'1116.9
2015-Jul-11 19:32N 14°07' W 062°31'20518.3
2015-Jul-11 08:22N 17°29' W 063°04'1518.6
2015-Jul-11 07:33N 17°44' W 063°05'1616.2
2015-Jul-11 06:33N 18°00' W 063°04'1 0.1
2015-Jul-10 09:33N 18°00' W 063°03'4 3.9
2015-Jul-10 08:33N 17°57' W 063°05'  
2015-Jul-05 12:33N 39°33' W 032°17'1615.9
2015-Jul-05 11:33N 39°43' W 031°60'1616.3
2015-Jul-05 10:33N 39°53' W 031°43'2116.7
2015-Jul-05 09:17N 40°06' W 031°21'3617.4
2015-Jul-05 07:14N 40°28' W 030°44'1717.9
2015-Jul-05 06:16N 40°38' W 030°26'  
2015-Jul-02 03:31N 49°58' W 003°21'1919.6
2015-Jul-02 02:33N 50°01' W 002°52'2120.8
2015-Jul-02 01:34N 50°05' W 002°21'2221.3
2015-Jul-02 00:32N 49°59' W 001°48'2121.0
2015-Jul-01 23:33N 49°51' W 001°18'2019.5
2015-Jul-01 22:33N 49°44' W 000°51'1817.9
2015-Jul-01 21:33N 49°36' W 000°26'1615.8
2015-Jul-01 20:34N 49°29' W 000°03'  
Track history (hours):
 
Tides and Currents Weather Stations Pressure Air Temp Water Temp Dewpoint Dewpoint Depression Visibility Wind Speed Wind Dir Waves Ship Positions

CMA CGM Homere

Last reported at 2015-Jul-11 20:12 UTC. Time now 2015-Jul-28 08:25 UTC.
Position N 13°55' W 062°30'.
Warning: this ship's position is 16 days out of date.

Length 170 m; draft 7.9 m.

Type: Ship (hazmat cat A). MMSI: 235052314.

Date/timePositionNaut miles runAvg speedWind from/ knotsBaromVisibWave heightAir tempDewpointWater temp
2015-Jul-11 20:12N 13°55' W 062°30'1116.9
2015-Jul-11 19:32N 14°07' W 062°31'20518.3
2015-Jul-11 08:22N 17°29' W 063°04'1518.6
2015-Jul-11 07:33N 17°44' W 063°05'1616.2
2015-Jul-11 06:33N 18°00' W 063°04'1 0.1
2015-Jul-10 09:33N 18°00' W 063°03'4 3.9
2015-Jul-10 08:33N 17°57' W 063°05'  
2015-Jul-05 12:33N 39°33' W 032°17'1615.9
2015-Jul-05 11:33N 39°43' W 031°60'1616.3
2015-Jul-05 10:33N 39°53' W 031°43'2116.7
2015-Jul-05 09:17N 40°06' W 031°21'3617.4
2015-Jul-05 07:14N 40°28' W 030°44'1717.9
2015-Jul-05 06:16N 40°38' W 030°26'  
2015-Jul-02 03:31N 49°58' W 003°21'1919.6
2015-Jul-02 02:33N 50°01' W 002°52'2120.8
2015-Jul-02 01:34N 50°05' W 002°21'2221.3
2015-Jul-02 00:32N 49°59' W 001°48'2121.0
2015-Jul-01 23:33N 49°51' W 001°18'2019.5
2015-Jul-01 22:33N 49°44' W 000°51'1817.9
2015-Jul-01 21:33N 49°36' W 000°26'1615.8
2015-Jul-01 20:34N 49°29' W 000°03'  

Dump ship's entire track history